createdAt,value
2024-03-01T00:10:43.390Z,953.45
2024-03-01T00:25:43.745Z,953.34
2024-03-01T00:40:44.166Z,953.37
2024-03-01T00:55:44.565Z,953.26
2024-03-01T01:10:45.101Z,953.13
2024-03-01T01:25:45.577Z,952.91
2024-03-01T01:40:46.077Z,952.60
2024-03-01T01:55:46.358Z,952.61
2024-03-01T02:10:46.907Z,952.65
2024-03-01T02:25:47.486Z,952.98
2024-03-01T02:40:47.840Z,952.80
2024-03-01T02:55:48.201Z,952.65
2024-03-01T03:10:48.682Z,952.55
2024-03-01T03:25:49.060Z,952.91
2024-03-01T03:40:49.539Z,953.20
2024-03-01T03:55:49.854Z,953.19
2024-03-01T04:10:50.229Z,953.37
2024-03-01T04:25:50.486Z,953.32
2024-03-01T04:40:50.921Z,953.35
2024-03-01T04:55:51.645Z,953.33
2024-03-01T05:10:52.699Z,953.51
2024-03-01T05:25:53.051Z,953.65
2024-03-01T05:40:55.779Z,953.93
2024-03-01T05:55:54.834Z,954.05
2024-03-01T06:10:55.599Z,954.28
2024-03-01T06:25:56.280Z,954.27
2024-03-01T06:40:57.020Z,954.29
2024-03-01T06:55:57.625Z,954.34
2024-03-01T07:10:58.281Z,954.43
2024-03-01T07:25:58.962Z,954.53
2024-03-01T07:40:59.616Z,954.51
2024-03-01T07:56:00.312Z,954.71
2024-03-01T08:11:00.972Z,954.62
2024-03-01T08:26:01.622Z,954.46
2024-03-01T08:41:02.262Z,954.43
2024-03-01T08:56:03.031Z,954.41
2024-03-01T09:11:04.169Z,954.59
2024-03-01T09:26:04.272Z,954.77
2024-03-01T09:41:04.960Z,954.74
2024-03-01T09:56:05.470Z,954.72
2024-03-01T10:11:06.229Z,954.73
2024-03-01T10:26:06.874Z,954.74
2024-03-01T10:41:11.895Z,954.72
2024-03-01T10:56:09.110Z,954.50
2024-03-01T11:11:08.500Z,954.47
2024-03-01T11:26:09.074Z,954.20
2024-03-01T11:41:09.735Z,954.17
2024-03-01T11:56:10.181Z,954.02
2024-03-01T12:11:10.623Z,954.09
2024-03-01T12:26:10.957Z,953.99
2024-03-01T12:41:11.939Z,953.90
2024-03-01T12:56:12.275Z,953.92
2024-03-01T13:11:12.827Z,953.84
2024-03-01T13:26:13.252Z,953.80
2024-03-01T13:41:13.806Z,953.73
2024-03-01T13:56:14.158Z,953.74
2024-03-01T14:11:14.691Z,953.77
2024-03-01T14:26:15.057Z,953.79
2024-03-01T14:41:16.214Z,953.80
2024-03-01T14:56:16.650Z,953.83
2024-03-01T15:11:17.202Z,953.79
2024-03-01T15:26:17.662Z,953.85
2024-03-01T15:41:18.067Z,953.83
2024-03-01T15:56:18.495Z,953.86
2024-03-01T16:11:18.993Z,953.78
2024-03-01T16:26:19.562Z,953.82
2024-03-01T16:41:19.992Z,953.80
2024-03-01T16:56:20.485Z,953.78
2024-03-01T17:11:20.897Z,953.79
2024-03-01T17:26:23.337Z,953.80
2024-03-01T17:41:22.436Z,953.94
2024-03-01T17:56:23.207Z,953.97
2024-03-01T18:11:23.859Z,954.07
2024-03-01T18:26:24.546Z,954.06
2024-03-01T18:41:25.245Z,954.06
2024-03-01T18:56:25.986Z,954.08
2024-03-01T19:11:26.822Z,954.10
2024-03-01T19:26:27.021Z,954.11
2024-03-01T19:41:27.710Z,954.19
2024-03-01T19:56:28.382Z,954.16
2024-03-01T20:11:29.156Z,954.13
2024-03-01T20:26:29.943Z,954.06
2024-03-01T20:41:30.859Z,954.04
2024-03-01T20:56:31.178Z,954.00
2024-03-01T21:11:31.496Z,953.87
2024-03-01T21:26:32.211Z,953.78
2024-03-01T21:41:33.002Z,953.70
2024-03-01T21:56:33.824Z,953.58
2024-03-01T22:11:34.748Z,953.52
2024-03-01T22:26:35.035Z,953.45
2024-03-01T22:41:35.897Z,953.37
2024-03-01T22:56:36.185Z,953.33
2024-03-01T23:11:37.131Z,953.32
2024-03-01T23:26:37.554Z,953.30
2024-03-01T23:41:37.995Z,953.29
2024-03-01T23:56:38.307Z,953.25
